Time;durP1;ratioP1;P1;durP2;ratioP2;P2;SDS_P1;SDS_P2;PMS_P1;PMS_P2;Temp;Humidity;BMP_temperature;BMP_pressure;BME280_temperature;BME280_humidity;BME280_pressure;Samples;Min_cycle;Max_cycle;Signal;HPM_P1;HPM_P2
2024/04/08 00:00:58;;;;;;;7.88;2.17;;;;;;;;;;4957990;28;102393;-46
2024/04/08 00:03:23;;;;;;;4.07;1.58;;;;;;;;;;4951047;28;99995;-46
2024/04/08 00:05:49;;;;;;;3.70;1.40;;;;;;;;;;4955065;28;101491;-46
2024/04/08 00:08:14;;;;;;;3.10;1.20;;;;;;;;;;4957318;28;100075;-46
2024/04/08 00:10:39;;;;;;;4.25;1.33;;;;;;;;;;4960752;28;101199;-54
2024/04/08 00:13:05;;;;;;;5.25;1.20;;;;;;;;;;4960741;28;106347;-53
2024/04/08 00:15:30;;;;;;;3.65;1.20;;;;;;;;;;4957877;28;99962;-46
2024/04/08 00:17:56;;;;;;;3.40;1.40;;;;;;;;;;4958325;28;104278;-46
2024/04/08 00:20:21;;;;;;;7.78;1.67;;;;;;;;;;4956816;28;100591;-46
2024/04/08 00:22:53;;;;;;;5.88;1.77;;;;;;;;;;4939837;28;101953;-46
2024/04/08 00:25:19;;;;;;;2.60;1.73;;;;;;;;;;4957759;28;101578;-46
2024/04/08 00:27:45;;;;;;;6.43;1.60;;;;;;;;;;4953802;28;101654;-46
2024/04/08 00:30:11;;;;;;;5.57;1.40;;;;;;;;;;4959801;28;101985;-46
2024/04/08 00:32:36;;;;;;;5.90;1.98;;;;;;;;;;4950260;28;101096;-46
2024/04/08 00:35:03;;;;;;;6.32;1.95;;;;;;;;;;4953945;28;99891;-46
2024/04/08 00:37:28;;;;;;;4.28;1.77;;;;;;;;;;4958895;28;101927;-46
2024/04/08 00:39:54;;;;;;;7.75;2.55;;;;;;;;;;4957564;28;101125;-46
2024/04/08 00:42:19;;;;;;;4.75;1.90;;;;;;;;;;4959414;28;99884;-46
2024/04/08 00:44:44;;;;;;;5.60;2.50;;;;;;;;;;4954563;28;101461;-47
2024/04/08 00:47:11;;;;;;;7.65;2.58;;;;;;;;;;4952513;28;100697;-46
2024/04/08 00:49:39;;;;;;;5.57;2.67;;;;;;;;;;4956668;28;100219;-46
2024/04/08 00:52:07;;;;;;;5.72;2.78;;;;;;;;;;4956746;28;100379;-47
2024/04/08 00:54:32;;;;;;;4.68;2.50;;;;;;;;;;4951099;28;101592;-46
2024/04/08 00:57:02;;;;;;;8.07;2.97;;;;;;;;;;4952041;28;100336;-47
2024/04/08 00:59:27;;;;;;;7.70;2.90;;;;;;;;;;4956856;28;101269;-46
2024/04/08 01:01:53;;;;;;;5.75;2.88;;;;;;;;;;4953637;28;100128;-46
2024/04/08 01:04:19;;;;;;;8.80;3.50;;;;;;;;;;4938861;28;101578;-46
2024/04/08 01:06:44;;;;;;;7.80;3.38;;;;;;;;;;4961725;28;101166;-46
2024/04/08 01:09:10;;;;;;;10.50;3.92;;;;;;;;;;4948472;28;100496;-46
2024/04/08 01:11:36;;;;;;;6.40;3.83;;;;;;;;;;4955050;28;100262;-47
2024/04/08 01:14:01;;;;;;;7.93;3.78;;;;;;;;;;4954716;28;102493;-46
2024/04/08 01:16:27;;;;;;;8.57;3.40;;;;;;;;;;4952477;28;100240;-47
2024/04/08 01:18:52;;;;;;;5.25;3.22;;;;;;;;;;4951731;28;101483;-47
2024/04/08 01:21:17;;;;;;;6.13;3.28;;;;;;;;;;4948737;28;100140;-53
2024/04/08 01:23:43;;;;;;;4.60;2.90;;;;;;;;;;4948674;28;100390;-53
2024/04/08 01:26:09;;;;;;;8.23;2.83;;;;;;;;;;4950598;28;100320;-46
2024/04/08 01:28:35;;;;;;;5.60;2.50;;;;;;;;;;4951746;28;99824;-46
2024/04/08 01:31:01;;;;;;;5.68;2.72;;;;;;;;;;4960999;28;102026;-46
2024/04/08 01:33:27;;;;;;;5.90;2.95;;;;;;;;;;4948578;28;101040;-47
2024/04/08 01:35:53;;;;;;;4.03;2.72;;;;;;;;;;4958450;28;100413;-46
2024/04/08 01:38:19;;;;;;;5.78;2.85;;;;;;;;;;4947171;28;101451;-47
2024/04/08 01:40:44;;;;;;;5.07;2.55;;;;;;;;;;4949605;28;99757;-47
2024/04/08 01:43:10;;;;;;;5.88;2.70;;;;;;;;;;4952483;28;100339;-47
2024/04/08 01:45:36;;;;;;;5.68;2.30;;;;;;;;;;4952128;28;100494;-46
2024/04/08 01:48:01;;;;;;;6.38;3.00;;;;;;;;;;4954453;28;101282;-47
2024/04/08 01:50:26;;;;;;;4.45;2.90;;;;;;;;;;4956045;28;101583;-46
2024/04/08 01:52:52;;;;;;;5.15;3.38;;;;;;;;;;4951315;28;100692;-46
2024/04/08 01:55:17;;;;;;;7.13;2.80;;;;;;;;;;4944288;28;101733;-47
2024/04/08 01:57:42;;;;;;;5.75;2.63;;;;;;;;;;4955276;28;100324;-46
2024/04/08 02:00:09;;;;;;;5.05;3.00;;;;;;;;;;4952689;28;99779;-46
2024/04/08 02:02:34;;;;;;;5.43;2.10;;;;;;;;;;4961096;28;100248;-46
2024/04/08 02:04:59;;;;;;;4.90;2.03;;;;;;;;;;4947691;28;100201;-54
2024/04/08 02:07:25;;;;;;;7.07;2.53;;;;;;;;;;4958062;28;101293;-52
2024/04/08 02:09:50;;;;;;;5.70;2.22;;;;;;;;;;4961196;28;100479;-45
2024/04/08 02:12:16;;;;;;;4.78;2.10;;;;;;;;;;4955708;28;100050;-47
2024/04/08 02:14:41;;;;;;;6.32;2.80;;;;;;;;;;4953981;28;101913;-46
2024/04/08 02:17:06;;;;;;;7.05;2.83;;;;;;;;;;4963642;28;100085;-46
2024/04/08 02:19:32;;;;;;;6.22;2.38;;;;;;;;;;4959374;28;99999;-46
2024/04/08 02:21:57;;;;;;;4.75;2.70;;;;;;;;;;4963079;28;100977;-45
2024/04/08 02:24:22;;;;;;;6.10;2.55;;;;;;;;;;4950866;28;101036;-46
2024/04/08 02:26:48;;;;;;;8.35;2.60;;;;;;;;;;4950136;28;101218;-46
2024/04/08 02:29:13;;;;;;;5.85;2.28;;;;;;;;;;4945233;28;100504;-46
2024/04/08 02:31:38;;;;;;;3.38;1.90;;;;;;;;;;4956520;28;100201;-46
2024/04/08 02:34:04;;;;;;;9.25;2.10;;;;;;;;;;4940610;28;100024;-53
2024/04/08 02:36:29;;;;;;;7.15;2.22;;;;;;;;;;4958145;28;100430;-53
2024/04/08 02:38:55;;;;;;;2.47;2.03;;;;;;;;;;4962659;28;101314;-46
2024/04/08 02:41:20;;;;;;;7.32;2.67;;;;;;;;;;4952179;28;100626;-53
2024/04/08 02:43:46;;;;;;;4.18;2.20;;;;;;;;;;4958427;28;100985;-53
2024/04/08 02:46:11;;;;;;;6.22;2.30;;;;;;;;;;4948808;28;99824;-46
2024/04/08 02:48:38;;;;;;;4.97;2.25;;;;;;;;;;4954756;28;100334;-46
2024/04/08 02:51:06;;;;;;;3.55;2.30;;;;;;;;;;4944009;28;100177;-46
2024/04/08 02:53:33;;;;;;;5.10;1.88;;;;;;;;;;4946286;28;100372;-46
2024/04/08 02:56:05;;;;;;;3.30;2.33;;;;;;;;;;4958678;28;100254;-47
2024/04/08 02:58:31;;;;;;;4.50;1.90;;;;;;;;;;4942900;28;100984;-47
2024/04/08 03:00:56;;;;;;;3.08;1.67;;;;;;;;;;4947008;28;100068;-46
2024/04/08 03:03:22;;;;;;;11.18;2.22;;;;;;;;;;4951149;28;100114;-46
2024/04/08 03:05:47;;;;;;;9.55;1.52;;;;;;;;;;4947967;28;101219;-53
2024/04/08 03:08:13;;;;;;;5.05;2.00;;;;;;;;;;4957641;28;100819;-53
2024/04/08 03:10:38;;;;;;;2.67;1.70;;;;;;;;;;4960671;28;100758;-56
2024/04/08 03:13:04;;;;;;;5.10;1.58;;;;;;;;;;4946220;28;100206;-53
2024/04/08 03:15:29;;;;;;;5.00;1.63;;;;;;;;;;4961468;28;100384;-47
2024/04/08 03:17:54;;;;;;;2.72;1.33;;;;;;;;;;4953210;28;100061;-46
2024/04/08 03:20:20;;;;;;;1.40;1.15;;;;;;;;;;4952328;28;102137;-46
2024/04/08 03:22:45;;;;;;;5.30;1.55;;;;;;;;;;4956376;28;100226;-46
2024/04/08 03:25:10;;;;;;;1.95;1.23;;;;;;;;;;4953027;28;100110;-47
2024/04/08 03:27:36;;;;;;;3.40;1.00;;;;;;;;;;4946365;28;101370;-46
2024/04/08 03:30:02;;;;;;;2.53;1.17;;;;;;;;;;4931385;28;102889;-46
2024/04/08 03:32:27;;;;;;;2.30;1.40;;;;;;;;;;4950803;28;100328;-46
2024/04/08 03:34:53;;;;;;;5.00;1.35;;;;;;;;;;4957480;28;100244;-46
2024/04/08 03:37:25;;;;;;;1.30;1.20;;;;;;;;;;4948839;28;100094;-46
2024/04/08 03:39:50;;;;;;;6.30;1.52;;;;;;;;;;4948329;28;100168;-46
2024/04/08 03:42:15;;;;;;;7.88;1.48;;;;;;;;;;4953283;28;101199;-46
2024/04/08 03:44:41;;;;;;;13.27;1.50;;;;;;;;;;4949810;28;102220;-46
2024/04/08 03:47:06;;;;;;;4.80;2.05;;;;;;;;;;4949934;28;100405;-46
2024/04/08 03:49:32;;;;;;;4.40;1.65;;;;;;;;;;4950776;28;100515;-52
2024/04/08 03:51:57;;;;;;;13.38;2.22;;;;;;;;;;4952893;28;100092;-53
2024/04/08 03:54:22;;;;;;;5.05;1.40;;;;;;;;;;4952224;28;100787;-54
2024/04/08 03:56:48;;;;;;;3.50;1.33;;;;;;;;;;4946145;28;102192;-52
2024/04/08 03:59:13;;;;;;;5.05;1.50;;;;;;;;;;4955911;28;100534;-46
2024/04/08 04:01:38;;;;;;;1.60;1.48;;;;;;;;;;4950478;28;100248;-45
2024/04/08 04:04:03;;;;;;;3.13;1.40;;;;;;;;;;4959344;28;104549;-53
2024/04/08 04:06:29;;;;;;;3.50;1.80;;;;;;;;;;4957220;28;103178;-54
2024/04/08 04:08:55;;;;;;;3.28;1.65;;;;;;;;;;4956159;28;100132;-47
2024/04/08 04:11:20;;;;;;;3.60;1.55;;;;;;;;;;4950888;28;100140;-47
2024/04/08 04:13:45;;;;;;;4.18;1.05;;;;;;;;;;4952682;28;100337;-46
2024/04/08 04:16:12;;;;;;;7.05;1.42;;;;;;;;;;4948830;28;100156;-47
2024/04/08 04:18:38;;;;;;;6.90;1.27;;;;;;;;;;4954004;28;100011;-46
2024/04/08 04:21:03;;;;;;;4.47;1.70;;;;;;;;;;4961475;28;100412;-46
2024/04/08 04:23:28;;;;;;;8.43;1.20;;;;;;;;;;4952802;28;101195;-46
2024/04/08 04:25:58;;;;;;;4.53;0.90;;;;;;;;;;4959771;28;99819;-46
2024/04/08 04:28:23;;;;;;;7.78;0.63;;;;;;;;;;4955449;28;100913;-46
2024/04/08 04:30:53;;;;;;;4.35;0.65;;;;;;;;;;4952953;28;102087;-46
2024/04/08 04:33:19;;;;;;;10.63;0.40;;;;;;;;;;4952958;28;101397;-47
2024/04/08 04:36:00;;;;;;;9.45;0.75;;;;;;;;;;4956728;28;101167;-46
2024/04/08 04:38:26;;;;;;;7.63;0.50;;;;;;;;;;4949665;28;101331;-46
2024/04/08 04:41:05;;;;;;;1.85;0.40;;;;;;;;;;4956633;28;100170;-46
2024/04/08 04:43:31;;;;;;;10.15;2.65;;;;;;;;;;4952997;28;100157;-46
2024/04/08 04:45:57;;;;;;;11.18;3.40;;;;;;;;;;4951981;28;99876;-46
2024/04/08 04:48:22;;;;;;;5.28;1.35;;;;;;;;;;4956169;28;100217;-46
2024/04/08 04:50:48;;;;;;;8.85;0.45;;;;;;;;;;4950950;28;101609;-46
2024/04/08 04:53:13;;;;;;;13.85;1.08;;;;;;;;;;4947743;28;100376;-46
2024/04/08 04:55:38;;;;;;;16.40;3.75;;;;;;;;;;4950004;28;101913;-47
2024/04/08 04:58:04;;;;;;;1.90;0.60;;;;;;;;;;4955585;28;100547;-46
2024/04/08 05:00:31;;;;;;;8.15;0.90;;;;;;;;;;4952421;28;100450;-46
2024/04/08 05:02:58;;;;;;;4.55;1.08;;;;;;;;;;4952058;28;100262;-46
2024/04/08 05:05:23;;;;;;;0.85;0.60;;;;;;;;;;4953641;28;99982;-52
2024/04/08 05:07:49;;;;;;;7.43;0.85;;;;;;;;;;4955248;28;101024;-53
2024/04/08 05:10:14;;;;;;;0.60;0.60;;;;;;;;;;4957639;28;100223;-46
2024/04/08 05:12:39;;;;;;;6.88;0.90;;;;;;;;;;4957799;28;100654;-46
2024/04/08 05:15:05;;;;;;;1.70;0.88;;;;;;;;;;4950796;28;101652;-46
2024/04/08 05:17:30;;;;;;;2.85;0.93;;;;;;;;;;4955783;28;99972;-46
2024/04/08 05:20:01;;;;;;;7.60;1.15;;;;;;;;;;4947133;28;103636;-52
2024/04/08 05:22:28;;;;;;;1.17;1.00;;;;;;;;;;4957417;28;100215;-53
2024/04/08 05:24:53;;;;;;;6.20;1.00;;;;;;;;;;4950333;28;100614;-46
2024/04/08 05:27:18;;;;;;;41.05;19.20;;;;;;;;;;4943805;28;100756;-46
2024/04/08 05:29:44;;;;;;;13.43;2.05;;;;;;;;;;4944987;28;101847;-46
2024/04/08 05:32:09;;;;;;;20.77;8.25;;;;;;;;;;4951378;28;101294;-46
2024/04/08 05:34:35;;;;;;;27.38;4.93;;;;;;;;;;4948660;28;100273;-46
2024/04/08 05:37:00;;;;;;;2.10;1.35;;;;;;;;;;4949599;28;101176;-46
2024/04/08 05:39:25;;;;;;;9.32;1.42;;;;;;;;;;4950379;28;105881;-47
2024/04/08 05:41:50;;;;;;;8.77;1.58;;;;;;;;;;4950140;28;100435;-46
2024/04/08 05:44:16;;;;;;;1.67;1.58;;;;;;;;;;4953545;28;101811;-47
2024/04/08 05:46:42;;;;;;;9.95;1.45;;;;;;;;;;4948494;28;106707;-47
2024/04/08 05:49:08;;;;;;;5.38;1.38;;;;;;;;;;4950612;28;100485;-46
2024/04/08 05:51:33;;;;;;;7.75;1.58;;;;;;;;;;4942921;28;100607;-47
2024/04/08 05:53:59;;;;;;;11.85;1.75;;;;;;;;;;4955540;28;100257;-47
2024/04/08 05:56:24;;;;;;;7.57;1.85;;;;;;;;;;4955778;28;100102;-47
2024/04/08 05:58:49;;;;;;;8.43;1.40;;;;;;;;;;4952173;28;100226;-47
2024/04/08 06:01:15;;;;;;;1.48;1.30;;;;;;;;;;4954500;28;100237;-47
2024/04/08 06:03:40;;;;;;;4.60;1.42;;;;;;;;;;4949947;28;101572;-47
2024/04/08 06:06:06;;;;;;;13.82;1.77;;;;;;;;;;4955129;28;100203;-54
2024/04/08 06:08:32;;;;;;;3.38;1.67;;;;;;;;;;4948885;28;101882;-53
2024/04/08 06:11:04;;;;;;;3.83;1.85;;;;;;;;;;4952939;28;100769;-53
2024/04/08 06:13:30;;;;;;;3.15;1.83;;;;;;;;;;4955354;28;100381;-53
2024/04/08 06:15:59;;;;;;;10.15;2.78;;;;;;;;;;4955929;28;101120;-47
2024/04/08 06:18:24;;;;;;;9.03;2.10;;;;;;;;;;4940725;28;102513;-45
2024/04/08 06:20:54;;;;;;;6.15;2.45;;;;;;;;;;4931489;28;101152;-47
2024/04/08 06:23:20;;;;;;;7.85;2.85;;;;;;;;;;4946361;28;100189;-47
2024/04/08 06:25:45;;;;;;;5.00;2.70;;;;;;;;;;4953641;28;100696;-47
2024/04/08 06:28:10;;;;;;;3.30;2.60;;;;;;;;;;4963699;28;100232;-47
2024/04/08 06:30:36;;;;;;;3.75;2.55;;;;;;;;;;4961181;28;101464;-47
2024/04/08 06:33:01;;;;;;;5.05;3.30;;;;;;;;;;4955515;28;100317;-47
2024/04/08 06:35:26;;;;;;;7.05;3.10;;;;;;;;;;4954404;28;100169;-47
2024/04/08 06:37:52;;;;;;;4.03;3.28;;;;;;;;;;4956910;28;100196;-46
2024/04/08 06:40:17;;;;;;;4.07;3.47;;;;;;;;;;4955893;28;100476;-47
2024/04/08 06:42:43;;;;;;;4.68;3.67;;;;;;;;;;4960095;28;99924;-47
2024/04/08 06:45:08;;;;;;;5.97;3.28;;;;;;;;;;4952105;28;100391;-47
2024/04/08 06:47:33;;;;;;;5.40;3.05;;;;;;;;;;4950018;28;100119;-47
2024/04/08 06:49:58;;;;;;;3.83;3.22;;;;;;;;;;4955332;28;100327;-46
2024/04/08 06:52:24;;;;;;;5.40;3.30;;;;;;;;;;4955465;28;100367;-47
2024/04/08 06:54:49;;;;;;;3.42;3.13;;;;;;;;;;4950456;28;100560;-47
2024/04/08 06:57:15;;;;;;;3.10;2.72;;;;;;;;;;4957800;28;99770;-47
2024/04/08 06:59:40;;;;;;;5.35;3.80;;;;;;;;;;4948175;28;100557;-47
2024/04/08 07:02:05;;;;;;;3.45;3.15;;;;;;;;;;4961308;28;100139;-47
2024/04/08 07:04:30;;;;;;;5.50;4.25;;;;;;;;;;4960276;28;100250;-52
2024/04/08 07:06:56;;;;;;;12.63;5.07;;;;;;;;;;4949602;28;100220;-52
2024/04/08 07:09:25;;;;;;;6.28;4.43;;;;;;;;;;4954548;28;99926;-52
2024/04/08 07:11:51;;;;;;;15.32;5.53;;;;;;;;;;4948224;28;100242;-52
2024/04/08 07:14:16;;;;;;;33.60;6.53;;;;;;;;;;4924891;28;101265;-52
2024/04/08 07:16:41;;;;;;;7.10;4.68;;;;;;;;;;4953267;28;99742;-52
2024/04/08 07:19:07;;;;;;;9.35;4.60;;;;;;;;;;4955007;28;100340;-52
2024/04/08 07:21:32;;;;;;;9.13;5.00;;;;;;;;;;4960427;28;100679;-52
2024/04/08 07:23:57;;;;;;;8.52;4.72;;;;;;;;;;4958037;28;100706;-52
2024/04/08 07:26:23;;;;;;;7.85;4.50;;;;;;;;;;4954876;28;100329;-52
2024/04/08 07:28:49;;;;;;;5.57;4.18;;;;;;;;;;4941245;28;100602;-51
2024/04/08 07:31:15;;;;;;;9.27;4.93;;;;;;;;;;4952503;28;101121;-51
2024/04/08 07:33:40;;;;;;;6.65;4.70;;;;;;;;;;4952515;28;100158;-50
2024/04/08 07:36:06;;;;;;;7.57;3.88;;;;;;;;;;4954793;28;100093;-52
2024/04/08 07:38:31;;;;;;;6.38;4.15;;;;;;;;;;4947901;28;100336;-52
2024/04/08 07:40:57;;;;;;;7.82;4.28;;;;;;;;;;4960204;28;100038;-52
2024/04/08 07:43:22;;;;;;;8.15;4.70;;;;;;;;;;4962259;28;100527;-52
2024/04/08 07:45:47;;;;;;;7.10;4.20;;;;;;;;;;4951837;28;100058;-52
2024/04/08 07:48:14;;;;;;;7.57;4.93;;;;;;;;;;4955909;28;100305;-52
2024/04/08 07:50:39;;;;;;;5.93;4.50;;;;;;;;;;4957404;28;100491;-52
2024/04/08 07:53:04;;;;;;;6.55;4.53;;;;;;;;;;4960023;28;102154;-52
2024/04/08 07:55:30;;;;;;;5.85;4.00;;;;;;;;;;4954281;28;100073;-51
2024/04/08 07:57:55;;;;;;;7.60;4.32;;;;;;;;;;4949332;28;100331;-50
2024/04/08 08:00:20;;;;;;;4.70;4.30;;;;;;;;;;4953583;28;105239;-52
2024/04/08 08:02:46;;;;;;;6.22;4.15;;;;;;;;;;4962294;28;100180;-52
2024/04/08 08:05:11;;;;;;;6.28;3.20;;;;;;;;;;4956145;28;100101;-51
2024/04/08 08:07:37;;;;;;;10.18;3.63;;;;;;;;;;4958493;28;101274;-50
2024/04/08 08:10:02;;;;;;;6.22;3.22;;;;;;;;;;4957605;28;101048;-52
2024/04/08 08:12:27;;;;;;;3.85;3.45;;;;;;;;;;4954202;28;100196;-52
2024/04/08 08:14:53;;;;;;;5.10;3.40;;;;;;;;;;4957754;28;100177;-52
2024/04/08 08:17:18;;;;;;;3.83;2.05;;;;;;;;;;4959418;28;100353;-52
2024/04/08 08:19:43;;;;;;;6.38;2.58;;;;;;;;;;4933477;28;101327;-52
2024/04/08 08:22:09;;;;;;;5.07;2.08;;;;;;;;;;4958734;28;100141;-52
2024/04/08 08:24:35;;;;;;;7.28;3.42;;;;;;;;;;4962205;28;101176;-49
2024/04/08 08:27:00;;;;;;;5.00;2.30;;;;;;;;;;4957495;28;100004;-52
2024/04/08 08:29:26;;;;;;;3.42;2.15;;;;;;;;;;4959975;28;101708;-52
2024/04/08 08:31:51;;;;;;;5.38;2.92;;;;;;;;;;4935336;28;101429;-52
2024/04/08 08:34:17;;;;;;;4.40;1.95;;;;;;;;;;4958785;28;100061;-52
2024/04/08 08:36:42;;;;;;;4.65;2.20;;;;;;;;;;4957881;28;102155;-52
2024/04/08 08:39:09;;;;;;;4.60;2.42;;;;;;;;;;4957510;28;100256;-52
2024/04/08 08:41:41;;;;;;;2.95;1.90;;;;;;;;;;4958430;28;99850;-49
2024/04/08 08:44:06;;;;;;;2.95;1.63;;;;;;;;;;4961838;28;100405;-51
2024/04/08 08:46:32;;;;;;;2.78;1.55;;;;;;;;;;4959233;28;102047;-52
2024/04/08 08:49:00;;;;;;;5.43;1.67;;;;;;;;;;4940688;28;101685;-52
2024/04/08 08:51:26;;;;;;;3.38;1.70;;;;;;;;;;4955247;28;100129;-52
2024/04/08 08:53:52;;;;;;;3.50;1.67;;;;;;;;;;4960066;28;99763;-51
2024/04/08 08:56:18;;;;;;;3.15;1.67;;;;;;;;;;4956404;28;100328;-52
2024/04/08 08:58:52;;;;;;;2.67;1.70;;;;;;;;;;4961071;28;100022;-49
2024/04/08 09:01:17;;;;;;;3.25;1.83;;;;;;;;;;4952330;28;100223;-52
2024/04/08 09:03:44;;;;;;;4.65;1.80;;;;;;;;;;4957732;28;100959;-52
2024/04/08 09:06:10;;;;;;;3.75;1.70;;;;;;;;;;4952977;28;100185;-52
2024/04/08 09:08:35;;;;;;;3.50;1.55;;;;;;;;;;4957344;28;102798;-53
2024/04/08 09:11:05;;;;;;;5.45;1.70;;;;;;;;;;4955523;28;101309;-53
2024/04/08 09:13:32;;;;;;;6.15;1.98;;;;;;;;;;4949443;28;100177;-53
2024/04/08 09:15:57;;;;;;;4.45;1.77;;;;;;;;;;4956522;28;100387;-55
2024/04/08 09:18:23;;;;;;;5.60;1.33;;;;;;;;;;4949565;28;100126;-54
2024/04/08 09:20:48;;;;;;;4.72;1.60;;;;;;;;;;4955413;28;99854;-55
2024/04/08 09:23:14;;;;;;;4.82;1.77;;;;;;;;;;4952931;28;100496;-55
2024/04/08 09:25:40;;;;;;;9.90;3.97;;;;;;;;;;4955698;28;100890;-54
2024/04/08 09:28:07;;;;;;;9.15;3.35;;;;;;;;;;4957538;28;99844;-54
2024/04/08 09:30:33;;;;;;;6.60;2.08;;;;;;;;;;4955830;28;100121;-50
2024/04/08 09:32:59;;;;;;;5.15;2.45;;;;;;;;;;4948116;28;99801;-48
2024/04/08 09:35:25;;;;;;;5.55;1.60;;;;;;;;;;4956019;28;100743;-54
2024/04/08 09:37:53;;;;;;;6.13;1.38;;;;;;;;;;4952330;28;101424;-54
2024/04/08 09:40:20;;;;;;;4.30;1.40;;;;;;;;;;4946938;28;99953;-54
2024/04/08 09:42:46;;;;;;;3.65;1.23;;;;;;;;;;4958718;28;102157;-55
2024/04/08 09:45:12;;;;;;;5.28;1.25;;;;;;;;;;4951676;28;101494;-54
2024/04/08 09:47:37;;;;;;;6.10;1.27;;;;;;;;;;4935123;28;100114;-54
2024/04/08 09:50:04;;;;;;;5.68;1.13;;;;;;;;;;4962019;28;102245;-54
2024/04/08 09:52:30;;;;;;;3.85;1.05;;;;;;;;;;4949231;28;100110;-54
2024/04/08 09:54:56;;;;;;;4.43;1.60;;;;;;;;;;4948518;28;100480;-54
2024/04/08 09:57:27;;;;;;;4.72;0.85;;;;;;;;;;4953824;28;100332;-54
2024/04/08 09:59:59;;;;;;;5.60;1.02;;;;;;;;;;4943224;28;99713;-54
2024/04/08 10:02:39;;;;;;;8.70;1.05;;;;;;;;;;4957593;28;100280;-54
2024/04/08 10:05:05;;;;;;;6.10;1.02;;;;;;;;;;4947308;28;100123;-49
2024/04/08 10:07:32;;;;;;;9.75;1.13;;;;;;;;;;4962172;28;99984;-49
2024/04/08 10:10:01;;;;;;;8.70;0.90;;;;;;;;;;4948831;28;100435;-53
2024/04/08 10:12:33;;;;;;;5.53;1.00;;;;;;;;;;4964658;28;100298;-55
2024/04/08 10:15:13;;;;;;;5.13;1.00;;;;;;;;;;4958113;28;100236;-48
2024/04/08 10:17:46;;;;;;;4.25;0.90;;;;;;;;;;4958279;28;100311;-50
2024/04/08 10:20:15;;;;;;;6.00;1.05;;;;;;;;;;4960097;28;100107;-50
2024/04/08 10:22:40;;;;;;;4.65;1.30;;;;;;;;;;4953472;28;100280;-50
2024/04/08 10:25:26;;;;;;;5.18;1.30;;;;;;;;;;4957118;28;105006;-53
2024/04/08 10:28:02;;;;;;;5.38;1.25;;;;;;;;;;4963317;28;99985;-52
2024/04/08 10:30:28;;;;;;;6.05;1.45;;;;;;;;;;4959020;28;100407;-52
2024/04/08 10:32:53;;;;;;;4.80;1.27;;;;;;;;;;4959369;28;100213;-51
2024/04/08 10:35:19;;;;;;;7.35;1.45;;;;;;;;;;4964150;28;102232;-52
2024/04/08 10:37:44;;;;;;;3.63;1.20;;;;;;;;;;4954895;28;101118;-52
2024/04/08 10:40:11;;;;;;;3.75;0.98;;;;;;;;;;4950729;28;99942;-52
2024/04/08 10:42:36;;;;;;;6.32;1.50;;;;;;;;;;4959190;28;100253;-52
2024/04/08 10:45:02;;;;;;;7.32;1.45;;;;;;;;;;4949892;28;101338;-51
2024/04/08 10:47:27;;;;;;;7.93;1.50;;;;;;;;;;4961045;28;102165;-51
2024/04/08 10:49:53;;;;;;;6.80;1.50;;;;;;;;;;4961762;28;100636;-49
2024/04/08 10:52:18;;;;;;;6.85;0.90;;;;;;;;;;4961554;28;101805;-49
2024/04/08 10:54:43;;;;;;;5.30;0.80;;;;;;;;;;4960832;28;100099;-50
2024/04/08 10:57:09;;;;;;;8.90;0.90;;;;;;;;;;4959579;28;100060;-48
2024/04/08 10:59:34;;;;;;;3.50;0.95;;;;;;;;;;4958012;28;99941;-49
2024/04/08 11:02:00;;;;;;;9.15;1.17;;;;;;;;;;4960891;28;100234;-50
2024/04/08 11:04:27;;;;;;;7.50;0.82;;;;;;;;;;4956576;28;100071;-51
2024/04/08 11:06:53;;;;;;;8.60;1.13;;;;;;;;;;4956329;28;100043;-51
2024/04/08 11:09:18;;;;;;;5.18;0.90;;;;;;;;;;4955311;28;99863;-52
2024/04/08 11:11:43;;;;;;;4.63;1.00;;;;;;;;;;4950836;28;100052;-52
2024/04/08 11:14:09;;;;;;;8.77;1.33;;;;;;;;;;4957983;28;99883;-49
2024/04/08 11:16:34;;;;;;;3.90;0.70;;;;;;;;;;4957560;28;105501;-48
2024/04/08 11:19:01;;;;;;;4.28;0.75;;;;;;;;;;4950601;28;99950;-49
2024/04/08 11:21:27;;;;;;;5.05;0.80;;;;;;;;;;4934826;28;103257;-49
2024/04/08 11:23:53;;;;;;;7.38;0.98;;;;;;;;;;4954741;28;100403;-49
2024/04/08 11:26:19;;;;;;;7.80;0.80;;;;;;;;;;4955595;28;100157;-51
2024/04/08 11:28:44;;;;;;;7.40;0.98;;;;;;;;;;4963279;28;100963;-51
2024/04/08 11:31:10;;;;;;;7.70;0.95;;;;;;;;;;4951323;28;100475;-51
2024/04/08 11:33:35;;;;;;;8.68;0.80;;;;;;;;;;4958280;28;100076;-51
2024/04/08 11:36:01;;;;;;;9.20;0.95;;;;;;;;;;4958415;28;100362;-51
2024/04/08 11:38:27;;;;;;;7.60;0.82;;;;;;;;;;4960795;28;100277;-51
2024/04/08 11:40:54;;;;;;;7.60;0.65;;;;;;;;;;4962225;28;100250;-49
2024/04/08 11:43:19;;;;;;;6.38;0.73;;;;;;;;;;4956556;28;100051;-50
2024/04/08 11:45:44;;;;;;;7.60;0.85;;;;;;;;;;4956949;28;99879;-51
2024/04/08 11:48:10;;;;;;;10.02;1.08;;;;;;;;;;4953455;28;103435;-50
2024/04/08 11:50:35;;;;;;;6.53;0.82;;;;;;;;;;4953014;28;101055;-49
2024/04/08 11:53:01;;;;;;;5.88;1.00;;;;;;;;;;4952131;28;100172;-50
2024/04/08 11:55:26;;;;;;;4.18;0.40;;;;;;;;;;4958575;28;103836;-49
2024/04/08 11:57:51;;;;;;;6.93;0.95;;;;;;;;;;4952055;28;100141;-51
2024/04/08 12:00:22;;;;;;;4.78;0.70;;;;;;;;;;4953382;28;100164;-52
2024/04/08 12:02:48;;;;;;;6.10;0.70;;;;;;;;;;4951065;28;100248;-52
2024/04/08 12:05:14;;;;;;;5.72;0.70;;;;;;;;;;4955522;28;100763;-53
2024/04/08 12:07:39;;;;;;;10.07;0.80;;;;;;;;;;4959492;28;100205;-54
2024/04/08 12:10:09;;;;;;;5.90;1.00;;;;;;;;;;4952100;28;100161;-53
2024/04/08 12:12:35;;;;;;;5.07;0.60;;;;;;;;;;4953233;28;99822;-53
2024/04/08 12:15:03;;;;;;;5.55;0.68;;;;;;;;;;4952809;28;100196;-50
2024/04/08 12:17:29;;;;;;;4.70;0.70;;;;;;;;;;4955517;28;100128;-50
2024/04/08 12:19:55;;;;;;;7.75;0.95;;;;;;;;;;4954547;28;99874;-53
2024/04/08 12:22:20;;;;;;;7.85;0.60;;;;;;;;;;4953089;28;100785;-53
2024/04/08 12:24:45;;;;;;;5.82;0.60;;;;;;;;;;4953755;28;100089;-53
2024/04/08 12:27:11;;;;;;;5.35;0.98;;;;;;;;;;4954536;28;100517;-54
2024/04/08 12:29:36;;;;;;;5.78;0.70;;;;;;;;;;4954011;28;100186;-53
2024/04/08 12:32:02;;;;;;;7.60;0.98;;;;;;;;;;4955974;28;100198;-53
2024/04/08 12:34:27;;;;;;;9.85;0.70;;;;;;;;;;4959843;28;100256;-53
2024/04/08 12:36:52;;;;;;;5.00;0.73;;;;;;;;;;4957322;28;101864;-53
2024/04/08 12:39:18;;;;;;;12.70;1.92;;;;;;;;;;4952302;28;100259;-52
2024/04/08 12:41:43;;;;;;;7.32;0.75;;;;;;;;;;4957182;28;100413;-50
2024/04/08 12:44:09;;;;;;;7.60;1.17;;;;;;;;;;4953099;28;99753;-52
2024/04/08 12:46:34;;;;;;;8.20;0.65;;;;;;;;;;4957947;28;100565;-52
2024/04/08 12:49:00;;;;;;;11.55;1.35;;;;;;;;;;4953113;28;100644;-53
2024/04/08 12:51:25;;;;;;;13.35;2.55;;;;;;;;;;4953258;28;101422;-49
2024/04/08 12:53:51;;;;;;;7.28;1.08;;;;;;;;;;4953163;28;100341;-48
2024/04/08 12:56:16;;;;;;;5.90;0.98;;;;;;;;;;4950202;28;100818;-53
2024/04/08 12:58:41;;;;;;;13.10;1.00;;;;;;;;;;4958808;28;100155;-53
2024/04/08 13:01:07;;;;;;;6.93;0.60;;;;;;;;;;4956715;28;102855;-53
2024/04/08 13:04:34;;;;;;;9.80;0.85;;;;;;;;;;5407395;25;95811;-52
2024/04/08 13:07:00;;;;;;;15.05;1.55;;;;;;;;;;5383242;26;96185;-51
2024/04/08 13:09:25;;;;;;;7.93;1.17;;;;;;;;;;5385487;26;96591;-53
2024/04/08 13:11:50;;;;;;;10.18;0.55;;;;;;;;;;5387363;26;95955;-53
2024/04/08 13:14:16;;;;;;;12.25;0.50;;;;;;;;;;5386748;26;98083;-54
2024/04/08 13:16:41;;;;;;;6.28;0.82;;;;;;;;;;5388134;26;95872;-53
2024/04/08 13:19:06;;;;;;;8.88;0.90;;;;;;;;;;5355835;26;98997;-53
2024/04/08 13:21:32;;;;;;;9.13;0.80;;;;;;;;;;5387883;26;96899;-54
2024/04/08 13:23:57;;;;;;;6.75;0.80;;;;;;;;;;5358856;26;95812;-52
2024/04/08 13:26:23;;;;;;;10.77;1.20;;;;;;;;;;5371004;26;96920;-52
2024/04/08 13:28:48;;;;;;;8.27;1.20;;;;;;;;;;5377210;26;96378;-53
2024/04/08 13:31:13;;;;;;;6.65;1.13;;;;;;;;;;5373355;26;98035;-54
2024/04/08 13:33:39;;;;;;;8.57;1.40;;;;;;;;;;5380831;26;96224;-53
2024/04/08 13:36:09;;;;;;;12.65;0.90;;;;;;;;;;5374262;26;95827;-55
2024/04/08 13:38:38;;;;;;;10.88;0.73;;;;;;;;;;5385175;26;96234;-54
2024/04/08 13:41:04;;;;;;;9.18;0.82;;;;;;;;;;5386016;26;96134;-54
2024/04/08 13:43:29;;;;;;;5.13;0.77;;;;;;;;;;5376853;26;97594;-54
2024/04/08 13:45:56;;;;;;;6.43;1.38;;;;;;;;;;5375469;26;96103;-54
2024/04/08 13:48:21;;;;;;;13.02;1.02;;;;;;;;;;5371144;26;95907;-54
2024/04/08 13:50:47;;;;;;;11.23;1.40;;;;;;;;;;5365841;26;96573;-55
2024/04/08 13:53:12;;;;;;;11.57;1.67;;;;;;;;;;5377479;26;99629;-55
2024/04/08 13:55:38;;;;;;;14.43;1.50;;;;;;;;;;5375999;26;96251;-51
2024/04/08 13:58:03;;;;;;;7.30;1.08;;;;;;;;;;5371653;26;97432;-51
2024/04/08 14:00:28;;;;;;;9.73;0.88;;;;;;;;;;5382224;26;96199;-54
2024/04/08 14:02:54;;;;;;;11.48;1.20;;;;;;;;;;5364105;26;96436;-53
2024/04/08 14:05:19;;;;;;;10.13;1.42;;;;;;;;;;5341233;26;96118;-53
2024/04/08 14:07:45;;;;;;;12.43;1.88;;;;;;;;;;5339475;26;96146;-53
2024/04/08 14:10:10;;;;;;;8.85;0.75;;;;;;;;;;5338665;26;96637;-53
2024/04/08 14:12:36;;;;;;;10.88;1.20;;;;;;;;;;5302393;26;96206;-54
2024/04/08 14:15:02;;;;;;;10.60;1.00;;;;;;;;;;5338631;26;95962;-55
2024/04/08 14:17:27;;;;;;;12.95;1.88;;;;;;;;;;5326532;26;96736;-53
2024/04/08 14:19:53;;;;;;;13.65;1.50;;;;;;;;;;5335771;26;97434;-50
2024/04/08 14:22:20;;;;;;;12.55;1.45;;;;;;;;;;5320678;26;98033;-50
2024/04/08 14:24:45;;;;;;;12.00;0.88;;;;;;;;;;5326955;26;96197;-55